Terminal Aerodrome Forecast
Issued by NWS Louisville, KY

Home | Current Version | Previous Version | Text Only | Print | Product List | Glossary On
Versions: 1 2 3 4 5 6 7 8 9 10 11 12 13 14 15 16 17 18
000
FTUS43 KLMK 192000 AAA
TAFSDF
TAF AMD
KSDF 192043Z 1921/2024 09006KT P6SM BKN024 OVC029
      TEMPO 1921/1923 SCT024 BKN035
     FM192300 09008KT P6SM SCT027 BKN035
     FM200500 VRB03KT 6SM BR SCT015 BKN025
     FM200900 VRB03KT 3SM BR BKN015
     FM201400 VRB04KT P6SM BKN022
     FM201800 VRB03KT P6SM SCT025 BKN040=

USA.gov is the U.S. government's official web portal to all federal, state and local government web resources and services.